Time;durP1;ratioP1;P1;durP2;ratioP2;P2;SDS_P1;SDS_P2;PMS_P1;PMS_P2;Temp;Humidity;BMP_temperature;BMP_pressure;BME280_temperature;BME280_humidity;BME280_pressure;Samples;Min_cycle;Max_cycle;Signal;HPM_P1;HPM_P2
2022/04/26 03:36:11;;;;;;;12.73;8.20;;;3.20;1.00;;;;;;5099719;28;20480;-54
2022/04/26 03:38:38;;;;;;;15.30;8.33;;;3.20;1.00;;;;;;5091204;28;20434;-49
2022/04/26 03:41:04;;;;;;;13.83;7.90;;;3.20;1.00;;;;;;5092557;28;20427;-50
2022/04/26 03:43:29;;;;;;;14.60;8.63;;;3.30;1.00;;;;;;5090913;28;20430;-50
2022/04/26 03:45:56;;;;;;;15.87;8.63;;;3.20;1.00;;;;;;5090982;28;20521;-50
2022/04/26 03:48:21;;;;;;;12.97;8.10;;;3.30;1.00;;;;;;5088853;28;20215;-49
2022/04/26 03:50:47;;;;;;;11.40;7.73;;;3.30;1.00;;;;;;5106774;28;20767;-49
2022/04/26 03:53:12;;;;;;;14.70;8.97;;;3.30;1.00;;;;;;5089717;28;20205;-49
2022/04/26 03:55:38;;;;;;;16.30;8.90;;;3.30;1.00;;;;;;5102701;28;20207;-56
2022/04/26 03:58:03;;;;;;;18.07;9.03;;;3.30;1.00;;;;;;5108634;28;20228;-49
2022/04/26 04:00:29;;;;;;;14.27;8.60;;;3.30;1.00;;;;;;5094580;28;20267;-49
2022/04/26 04:02:54;;;;;;;14.07;8.13;;;3.30;1.00;;;;;;5097890;28;20194;-49
2022/04/26 04:05:21;;;;;;;14.00;8.30;;;3.30;1.00;;;;;;5094060;28;20197;-50
2022/04/26 04:07:47;;;;;;;19.50;9.53;;;3.30;1.00;;;;;;5111777;28;20195;-53
2022/04/26 04:10:12;;;;;;;17.27;9.13;;;3.30;1.00;;;;;;5107473;28;20438;-53
2022/04/26 04:12:38;;;;;;;14.90;9.07;;;3.30;1.00;;;;;;5104822;28;20242;-53
2022/04/26 04:15:04;;;;;;;13.17;8.57;;;3.30;1.00;;;;;;5106311;28;20833;-53
2022/04/26 04:17:29;;;;;;;13.40;8.17;;;3.30;1.00;;;;;;5103834;28;20229;-53
2022/04/26 04:19:55;;;;;;;15.60;9.57;;;3.40;1.00;;;;;;5106112;28;20803;-53
2022/04/26 04:22:21;;;;;;;16.53;9.03;;;3.40;1.00;;;;;;5096508;28;20205;-53
2022/04/26 04:24:47;;;;;;;13.83;8.37;;;3.40;1.00;;;;;;5099423;28;20188;-54
2022/04/26 04:27:12;;;;;;;15.20;8.90;;;3.40;1.00;;;;;;5112090;28;20448;-53
2022/04/26 04:29:38;;;;;;;14.53;8.90;;;3.40;1.00;;;;;;5112388;28;20199;-53
2022/04/26 04:32:04;;;;;;;15.40;8.90;;;3.50;1.00;;;;;;5112266;28;20858;-53
2022/04/26 04:34:29;;;;;;;16.63;8.80;;;3.50;1.00;;;;;;5100341;28;20197;-53
2022/04/26 04:36:55;;;;;;;14.83;8.60;;;3.60;1.00;;;;;;5101412;28;20220;-54
2022/04/26 04:39:23;;;;;;;16.70;8.93;;;3.60;1.00;;;;;;5101913;28;20581;-53
2022/04/26 04:41:51;;;;;;;16.50;9.60;;;3.70;1.00;;;;;;5107682;28;20818;-53
2022/04/26 04:44:18;;;;;;;14.93;9.03;;;3.80;1.00;;;;;;5097361;28;20605;-53
2022/04/26 04:46:44;;;;;;;13.50;8.90;;;3.80;1.00;;;;;;5109834;28;20476;-53
2022/04/26 04:49:10;;;;;;;15.40;9.83;;;3.90;1.00;;;;;;5111544;28;20461;-53
2022/04/26 04:51:35;;;;;;;17.87;9.40;;;3.90;1.00;;;;;;5103930;28;20196;-53
2022/04/26 04:54:01;;;;;;;13.23;8.37;;;3.90;1.00;;;;;;5108415;28;20668;-53
2022/04/26 04:56:27;;;;;;;18.50;9.90;;;4.00;1.00;;;;;;5098066;28;20221;-53
2022/04/26 04:58:54;;;;;;;15.37;9.00;;;4.10;1.00;;;;;;5100084;28;20780;-53
2022/04/26 05:01:20;;;;;;;19.00;9.50;;;4.20;1.00;;;;;;5110292;28;20677;-53
2022/04/26 05:03:45;;;;;;;27.43;10.60;;;4.30;1.00;;;;;;5109487;27;20430;-53
2022/04/26 05:06:15;;;;;;;16.07;9.40;;;4.40;1.00;;;;;;5105119;28;20192;-52
2022/04/26 05:08:41;;;;;;;15.90;8.80;;;4.60;1.00;;;;;;5106674;28;20609;-53
2022/04/26 05:11:07;;;;;;;17.83;9.17;;;4.70;1.00;;;;;;5104896;28;20435;-53
2022/04/26 05:13:32;;;;;;;22.77;9.03;;;4.80;1.00;;;;;;5104508;28;20919;-52
2022/04/26 05:15:58;;;;;;;15.27;8.87;;;4.80;1.00;;;;;;5110463;28;20220;-53
2022/04/26 05:18:24;;;;;;;19.20;10.00;;;4.90;1.00;;;;;;5110739;28;20278;-52
2022/04/26 05:20:49;;;;;;;16.07;9.23;;;5.00;1.00;;;;;;5106453;28;20661;-52
2022/04/26 05:25:59;;;;;;;14.73;9.30;;;5.20;1.00;;;;;;5096870;28;20229;-49
2022/04/26 05:28:25;;;;;;;13.60;8.60;;;5.40;1.00;;;;;;5110289;28;20433;-49
2022/04/26 05:30:52;;;;;;;13.07;8.50;;;5.60;1.00;;;;;;5100049;28;20205;-49
2022/04/26 05:33:18;;;;;;;15.50;9.07;;;5.70;1.00;;;;;;5110839;28;20219;-49
2022/04/26 05:35:43;;;;;;;17.03;10.77;;;6.00;1.00;;;;;;5103551;28;20469;-49
2022/04/26 05:38:09;;;;;;;15.03;8.37;;;6.30;99.90;;;;;;5101263;28;20200;-49
2022/04/26 05:40:34;;;;;;;14.83;8.70;;;6.60;99.90;;;;;;5107394;28;20192;-49
2022/04/26 05:43:00;;;;;;;15.30;9.90;;;6.90;99.90;;;;;;5110818;28;20196;-49
2022/04/26 05:45:27;;;;;;;20.73;9.40;;;7.40;99.90;;;;;;5102588;28;20224;-49
2022/04/26 05:47:54;;;;;;;13.33;8.80;;;7.80;99.90;;;;;;5109962;28;20194;-49
2022/04/26 05:50:19;;;;;;;13.30;9.40;;;8.30;99.90;;;;;;5101767;28;20434;-49
2022/04/26 05:52:45;;;;;;;14.30;9.10;;;8.60;99.90;;;;;;5102609;27;20811;-49
2022/04/26 05:55:10;;;;;;;13.37;9.30;;;8.70;99.90;;;;;;5107626;28;20226;-49
2022/04/26 05:57:40;;;;;;;12.57;8.93;;;8.70;99.90;;;;;;5108870;28;21000;-50
2022/04/26 06:00:07;;;;;;;14.27;8.40;;;8.60;99.90;;;;;;5096557;28;20702;-49
2022/04/26 06:02:33;;;;;;;19.63;9.60;;;8.50;99.90;;;;;;5107265;28;20441;-49
2022/04/26 06:04:59;;;;;;;18.47;10.10;;;8.40;99.90;;;;;;5106515;28;20426;-49
2022/04/26 06:07:24;;;;;;;16.40;10.10;;;8.30;99.90;;;;;;5102237;28;20768;-49
2022/04/26 06:09:53;;;;;;;20.00;10.23;;;8.30;99.90;;;;;;5106127;28;20197;-50
2022/04/26 06:12:19;;;;;;;22.23;10.40;;;8.60;99.90;;;;;;5108180;28;20304;-49
2022/04/26 06:14:45;;;;;;;14.43;8.50;;;9.10;99.90;;;;;;5102737;27;20546;-49
2022/04/26 06:17:10;;;;;;;17.67;8.90;;;9.70;99.90;;;;;;5110580;28;20465;-49
2022/04/26 06:19:36;;;;;;;12.80;9.03;;;10.20;99.90;;;;;;5104863;27;20225;-49
2022/04/26 06:22:01;;;;;;;13.50;9.67;;;10.70;99.90;;;;;;5108661;28;20734;-49
2022/04/26 06:24:28;;;;;;;12.83;8.90;;;10.80;99.90;;;;;;5110204;28;20238;-50
2022/04/26 06:26:53;;;;;;;19.53;9.87;;;10.80;99.90;;;;;;5109345;28;20261;-49
2022/04/26 06:29:19;;;;;;;15.30;8.77;;;10.80;99.90;;;;;;5100013;27;20866;-49
2022/04/26 06:31:46;;;;;;;16.40;9.10;;;10.80;99.90;;;;;;5112422;27;20203;-49
2022/04/26 06:34:12;;;;;;;16.38;9.80;;;10.70;99.90;;;;;;5109193;28;20870;-49
2022/04/26 06:36:38;;;;;;;14.10;9.30;;;10.70;99.90;;;;;;5109885;27;20367;-49
2022/04/26 06:39:04;;;;;;;13.10;8.40;;;10.80;99.90;;;;;;5110143;27;20291;-49
2022/04/26 06:41:30;;;;;;;16.50;9.57;;;10.80;99.90;;;;;;5092034;27;20550;-49
2022/04/26 06:43:55;;;;;;;11.70;8.13;;;10.90;99.90;;;;;;5108844;28;20672;-49
2022/04/26 06:46:21;;;;;;;13.37;9.10;;;10.90;99.90;;;;;;5114901;27;20203;-49
2022/04/26 06:48:49;;;;;;;16.43;8.13;;;11.00;99.90;;;;;;5109666;27;20854;-49
2022/04/26 06:51:15;;;;;;;17.40;8.73;;;11.10;99.90;;;;;;5108455;27;20187;-49
2022/04/26 06:53:40;;;;;;;13.50;7.87;;;11.20;99.90;;;;;;5117072;27;20469;-51
2022/04/26 06:56:06;;;;;;;16.93;8.33;;;11.40;99.90;;;;;;5104754;28;20466;-50
2022/04/26 06:58:33;;;;;;;20.57;8.47;;;11.50;99.90;;;;;;5099488;28;20716;-50
2022/04/26 07:01:00;;;;;;;11.00;8.20;;;11.50;99.90;;;;;;5110027;28;20245;-50
2022/04/26 07:03:26;;;;;;;15.10;8.90;;;11.60;99.90;;;;;;5110245;28;20444;-50
2022/04/26 07:05:52;;;;;;;14.37;8.20;;;11.80;99.90;;;;;;5122307;27;21300;-50
2022/04/26 07:08:17;;;;;;;14.27;8.40;;;12.20;99.90;;;;;;5127261;27;20442;-49
2022/04/26 07:10:43;;;;;;;9.87;7.20;;;12.50;99.90;;;;;;5109248;28;20433;-50
2022/04/26 07:13:09;;;;;;;11.97;7.70;;;13.10;99.90;;;;;;5109876;28;20188;-50
2022/04/26 07:15:34;;;;;;;9.07;6.70;;;13.50;99.90;;;;;;5100876;28;20184;-51
2022/04/26 07:18:00;;;;;;;10.00;7.73;;;13.70;99.90;;;;;;5104159;28;20314;-50
2022/04/26 07:20:28;;;;;;;13.10;8.00;;;13.90;99.90;;;;;;5096539;28;20192;-50
2022/04/26 07:22:53;;;;;;;11.17;6.50;;;13.90;99.90;;;;;;5089223;28;20166;-50
2022/04/26 07:25:19;;;;;;;10.90;7.40;;;14.20;99.90;;;;;;5101735;28;20790;-50
2022/04/26 07:27:44;;;;;;;11.73;6.67;;;14.80;99.90;;;;;;5108437;28;20192;-50
2022/04/26 07:30:10;;;;;;;12.00;6.63;;;15.40;99.90;;;;;;5098055;28;20196;-50
2022/04/26 07:35:20;;;;;;;8.70;6.20;;;15.30;99.90;;;;;;5097444;28;20911;-50
2022/04/26 07:37:46;;;;;;;10.80;6.20;;;15.10;99.90;;;;;;5096170;28;20557;-50
2022/04/26 07:40:11;;;;;;;10.43;6.53;;;15.30;99.90;;;;;;5105716;28;20193;-50
2022/04/26 07:42:37;;;;;;;15.33;5.97;;;15.30;99.90;;;;;;5094005;28;20962;-50
2022/04/26 07:45:03;;;;;;;13.90;6.30;;;15.20;99.90;;;;;;5093574;28;20185;-50
2022/04/26 07:47:30;;;;;;;11.50;5.90;;;15.40;99.90;;;;;;5093252;28;20200;-49
2022/04/26 07:49:56;;;;;;;18.13;6.97;;;15.90;99.90;;;;;;5092116;28;20530;-50
2022/04/26 07:52:23;;;;;;;10.20;5.77;;;16.10;99.90;;;;;;5098027;27;20445;-50
2022/04/26 07:54:49;;;;;;;9.63;6.23;;;16.10;99.90;;;;;;5109142;28;20434;-50
2022/04/26 07:57:14;;;;;;;10.20;6.07;;;16.20;99.90;;;;;;5111150;28;20467;-50
2022/04/26 07:59:40;;;;;;;8.33;5.63;;;16.40;99.90;;;;;;5107453;27;20445;-50
2022/04/26 08:02:10;;;;;;;10.53;5.57;;;16.70;99.90;;;;;;5108588;27;20257;-50
2022/04/26 08:04:38;;;;;;;7.80;5.50;;;16.80;99.90;;;;;;5112885;28;20649;-49
2022/04/26 08:07:04;;;;;;;12.00;6.10;;;16.90;99.90;;;;;;5102952;28;20433;-49
2022/04/26 08:09:35;;;;;;;11.60;5.87;;;17.20;99.90;;;;;;5108236;28;20476;-50
2022/04/26 08:12:03;;;;;;;7.37;5.60;;;17.50;99.90;;;;;;5112143;28;20437;-52
2022/04/26 08:14:30;;;;;;;7.83;5.40;;;17.90;99.90;;;;;;5113381;28;20482;-50
2022/04/26 08:16:55;;;;;;;8.43;5.90;;;18.20;99.90;;;;;;5113652;28;20458;-50
2022/04/26 08:19:21;;;;;;;15.20;5.50;;;18.60;99.90;;;;;;5113458;28;20474;-49
2022/04/26 08:21:47;;;;;;;8.90;5.63;;;18.80;99.90;;;;;;5095425;28;20181;-50
2022/04/26 08:29:41;;;;;;;8.47;5.80;;;19.20;99.90;;;;;;5102732;27;20835;-50
2022/04/26 08:32:06;;;;;;;6.17;5.57;;;19.30;99.90;;;;;;5101827;28;20434;-50
2022/04/26 08:34:32;;;;;;;9.67;5.30;;;19.10;99.90;;;;;;5113232;28;20237;-50
2022/04/26 08:36:58;;;;;;;8.63;6.17;;;19.00;99.90;;;;;;5095197;28;20241;-50
2022/04/26 08:39:23;;;;;;;7.20;5.37;;;19.20;99.90;;;;;;5100247;28;20196;-50
2022/04/26 08:41:49;;;;;;;7.27;5.60;;;19.40;99.90;;;;;;5113465;28;20561;-50
2022/04/26 08:44:15;;;;;;;8.93;5.53;;;19.60;99.90;;;;;;5113212;28;20233;-50
2022/04/26 08:52:19;;;;;;;11.63;5.50;;;20.10;99.90;;;;;;5104178;28;20518;-50
2022/04/26 08:54:44;;;;;;;5.30;4.57;;;20.40;99.90;;;;;;5104947;28;20438;-50
2022/04/26 08:57:12;;;;;;;8.30;5.63;;;20.60;99.90;;;;;;5112824;28;21166;-51
2022/04/26 08:59:45;;;;;;;14.93;5.83;;;20.60;99.90;;;;;;5111846;28;20879;-50
2022/04/26 09:02:22;;;;;;;6.87;5.20;;;20.40;99.90;;;;;;5102660;28;20513;-50
2022/04/26 09:04:59;;;;;;;9.47;5.47;;;20.40;99.90;;;;;;5102263;27;20449;-50
2022/04/26 09:07:37;;;;;;;6.00;5.03;;;20.40;99.90;;;;;;5105563;28;20418;-50
2022/04/26 09:10:08;;;;;;;5.90;4.83;;;19.90;99.90;;;;;;5092487;28;20437;-50
2022/04/26 09:13:07;;;;;;;8.50;5.10;;;19.70;99.90;;;;;;5104627;27;20452;-50
2022/04/26 09:15:44;;;;;;;20.67;6.40;;;20.00;99.90;;;;;;5103655;28;20508;-50
2022/04/26 09:18:30;;;;;;;15.73;6.30;;;20.00;99.90;;;;;;5098535;28;20458;-50
2022/04/26 09:21:05;;;;;;;28.37;5.33;;;20.10;99.90;;;;;;5109871;28;20437;-50
2022/04/26 09:23:34;;;;;;;11.87;5.70;;;20.20;99.90;;;;;;5092051;28;20414;-50
2022/04/26 09:26:08;;;;;;;7.70;4.60;;;20.20;99.90;;;;;;5104114;28;20423;-50
2022/04/26 09:28:36;;;;;;;13.03;4.47;;;20.20;99.90;;;;;;5106351;28;20432;-50
2022/04/26 09:31:18;;;;;;;8.40;3.97;;;20.50;99.90;;;;;;5110771;28;20938;-50
2022/04/26 09:33:47;;;;;;;7.33;4.70;;;20.30;99.90;;;;;;5112089;28;20819;-50
2022/04/26 09:36:14;;;;;;;7.37;5.70;;;20.20;99.90;;;;;;5111100;28;20539;-52
2022/04/26 09:38:48;;;;;;;9.73;4.73;;;19.80;99.90;;;;;;5112075;28;20406;-49
2022/04/26 09:41:14;;;;;;;12.13;5.40;;;19.70;99.90;;;;;;5108901;28;20438;-50
2022/04/26 09:43:40;;;;;;;7.60;4.90;;;19.80;99.90;;;;;;5112088;28;20397;-50
2022/04/26 09:46:06;;;;;;;7.23;5.20;;;19.70;99.90;;;;;;5112380;28;20192;-50
2022/04/26 09:48:37;;;;;;;6.03;4.80;;;19.80;99.90;;;;;;5102293;28;20884;-50
2022/04/26 09:51:07;;;;;;;7.30;4.63;;;19.90;99.90;;;;;;5095343;27;20516;-50
2022/04/26 09:53:33;;;;;;;11.80;5.33;;;19.90;99.90;;;;;;5091735;28;20418;-50
2022/04/26 09:56:04;;;;;;;6.30;4.50;;;19.90;99.90;;;;;;5091463;28;21286;-50
2022/04/26 09:58:31;;;;;;;6.43;5.50;;;19.70;99.90;;;;;;5097657;27;20475;-50
2022/04/26 10:01:00;;;;;;;6.10;5.00;;;19.70;99.90;;;;;;5099207;28;20438;-50
2022/04/26 10:03:35;;;;;;;6.83;5.27;;;19.80;99.90;;;;;;5089660;28;20416;-49
2022/04/26 10:06:05;;;;;;;5.93;5.10;;;20.10;99.90;;;;;;5092416;28;20407;-50
2022/04/26 10:08:34;;;;;;;6.33;4.90;;;20.10;99.90;;;;;;5111334;28;20410;-50
2022/04/26 10:11:01;;;;;;;7.20;5.40;;;20.10;99.90;;;;;;5111561;28;20402;-50
2022/04/26 10:13:31;;;;;;;7.60;5.20;;;20.30;99.90;;;;;;5106070;27;20933;-50
2022/04/26 10:16:17;;;;;;;10.87;6.63;;;20.60;99.90;;;;;;5097463;27;20438;-50
2022/04/26 10:18:44;;;;;;;7.63;5.33;;;20.40;99.90;;;;;;5111295;28;20469;-50
2022/04/26 10:21:12;;;;;;;9.37;5.33;;;20.40;99.90;;;;;;5111030;27;20445;-50
2022/04/26 10:23:56;;;;;;;5.90;5.20;;;20.40;99.90;;;;;;5111058;27;21149;-50
2022/04/26 10:26:25;;;;;;;6.73;5.90;;;19.80;99.90;;;;;;5111072;28;20426;-50
2022/04/26 10:28:59;;;;;;;9.17;6.27;;;19.00;99.90;;;;;;5103662;28;20941;-50
2022/04/26 10:31:56;;;;;;;7.70;6.10;;;18.40;99.90;;;;;;5085884;28;20435;-50
2022/04/26 10:34:26;;;;;;;8.33;6.27;;;17.90;99.90;;;;;;5093796;27;20922;-50
2022/04/26 10:37:00;;;;;;;6.87;5.77;;;18.00;99.90;;;;;;5110635;27;20615;-50
2022/04/26 10:39:31;;;;;;;7.40;5.37;;;18.80;99.90;;;;;;5109290;27;20433;-50
2022/04/26 10:41:59;;;;;;;6.63;5.23;;;19.70;99.90;;;;;;5111181;28;20410;-50
2022/04/26 10:44:38;;;;;;;6.70;6.00;;;20.30;99.90;;;;;;5110415;28;20438;-49
2022/04/26 10:47:03;;;;;;;6.47;5.40;;;20.30;99.90;;;;;;5111086;28;20433;-51
2022/04/26 10:49:32;;;;;;;6.43;5.33;;;20.10;99.90;;;;;;5109923;27;20522;-50
2022/04/26 10:52:24;;;;;;;9.83;5.73;;;19.90;99.90;;;;;;5110149;28;20195;-50
2022/04/26 10:54:53;;;;;;;7.83;5.23;;;19.60;99.90;;;;;;5098549;28;20415;-50
2022/04/26 10:57:20;;;;;;;7.50;5.30;;;19.10;99.90;;;;;;5105297;28;20951;-50
2022/04/26 10:59:46;;;;;;;9.60;5.63;;;19.20;99.90;;;;;;5109865;28;20771;-50
2022/04/26 11:02:15;;;;;;;9.77;5.33;;;19.00;99.90;;;;;;5110154;28;20429;-50
2022/04/26 11:04:40;;;;;;;10.03;5.87;;;18.80;99.90;;;;;;5109996;28;20426;-50
2022/04/26 11:07:14;;;;;;;8.67;5.63;;;18.90;99.90;;;;;;5109700;28;20775;-50
2022/04/26 11:09:51;;;;;;;7.80;6.10;;;19.30;99.90;;;;;;5109820;28;20227;-50
2022/04/26 11:12:18;;;;;;;7.53;5.40;;;19.60;99.90;;;;;;5110107;28;20439;-50
2022/04/26 11:14:44;;;;;;;9.10;6.30;;;19.70;99.90;;;;;;5109778;28;20469;-50
2022/04/26 11:17:10;;;;;;;9.47;5.80;;;19.60;99.90;;;;;;5109809;28;20986;-51
2022/04/26 11:19:38;;;;;;;6.87;5.90;;;20.10;99.90;;;;;;5109870;28;20469;-51
2022/04/26 11:22:08;;;;;;;9.27;5.00;;;21.00;99.90;;;;;;5105817;28;20680;-50
2022/04/26 11:30:05;;;;;;;7.63;5.40;;;22.50;99.90;;;;;;5110250;28;20495;-50
2022/04/26 11:32:35;;;;;;;7.33;5.23;;;23.00;99.90;;;;;;5092047;28;20430;-51
2022/04/26 11:35:01;;;;;;;16.43;6.50;;;23.10;99.90;;;;;;5091933;28;20422;-50
2022/04/26 11:37:27;;;;;;;11.50;5.53;;;22.90;99.90;;;;;;5097307;28;20502;-50
2022/04/26 11:39:53;;;;;;;6.80;4.77;;;23.00;99.90;;;;;;5089630;28;20438;-51
2022/04/26 11:42:19;;;;;;;7.70;5.37;;;23.80;99.90;;;;;;5089673;28;20189;-51
2022/04/26 11:45:03;;;;;;;5.50;5.00;;;24.10;99.90;;;;;;5089811;28;20189;-50
2022/04/26 11:47:49;;;;;;;6.10;5.40;;;24.10;99.90;;;;;;5098939;28;20454;-51
2022/04/26 11:50:20;;;;;;;6.17;5.23;;;24.00;99.90;;;;;;5091819;28;20430;-50
2022/04/26 11:52:48;;;;;;;15.33;5.73;;;23.30;99.90;;;;;;5106832;28;20450;-52
2022/04/26 11:55:34;;;;;;;9.93;5.23;;;22.10;99.90;;;;;;5088306;28;20450;-49
2022/04/26 11:58:16;;;;;;;5.73;5.20;;;21.50;99.90;;;;;;5107082;28;20605;-50
2022/04/26 12:01:06;;;;;;;9.30;5.30;;;21.70;99.90;;;;;;5108807;28;20434;-49
2022/04/26 12:03:40;;;;;;;10.60;6.07;;;21.00;99.90;;;;;;5100529;28;20447;-49
2022/04/26 12:06:07;;;;;;;6.90;6.20;;;20.60;99.90;;;;;;5105059;28;20449;-49
2022/04/26 12:08:39;;;;;;;6.20;5.40;;;20.00;99.90;;;;;;5104091;28;20434;-49
2022/04/26 12:11:23;;;;;;;8.13;6.40;;;19.50;99.90;;;;;;5103280;28;20465;-49
2022/04/26 12:14:08;;;;;;;6.57;5.57;;;18.80;99.90;;;;;;5106019;28;20915;-49
2022/04/26 12:16:45;;;;;;;10.17;5.67;;;18.50;99.90;;;;;;5099941;28;20540;-49
2022/04/26 12:19:11;;;;;;;7.43;5.70;;;19.00;99.90;;;;;;5105272;28;20497;-49
2022/04/26 12:21:52;;;;;;;12.60;6.30;;;19.70;99.90;;;;;;5110084;28;20413;-49
2022/04/26 12:24:25;;;;;;;6.67;5.50;;;20.60;99.90;;;;;;5109032;28;20433;-49
2022/04/26 12:26:57;;;;;;;6.93;5.93;;;21.00;99.90;;;;;;5092507;28;20566;-49
2022/04/26 12:29:24;;;;;;;10.17;5.53;;;20.40;99.90;;;;;;5107523;28;20452;-49
2022/04/26 12:31:50;;;;;;;6.20;5.17;;;19.90;99.90;;;;;;5095261;28;20925;-49
2022/04/26 12:34:20;;;;;;;7.07;5.67;;;20.10;99.90;;;;;;5111171;28;20434;-50
2022/04/26 12:36:59;;;;;;;5.83;5.03;;;20.40;99.90;;;;;;5103115;28;20576;-49
2022/04/26 12:39:27;;;;;;;6.93;6.10;;;20.10;99.90;;;;;;5091778;28;20532;-50
2022/04/26 12:41:56;;;;;;;8.30;6.20;;;19.80;99.90;;;;;;5089920;28;20443;-49
2022/04/26 12:44:23;;;;;;;9.93;5.90;;;19.90;99.90;;;;;;5093021;28;20779;-49
2022/04/26 12:52:43;;;;;;;8.90;5.60;;;22.30;99.90;;;;;;5092888;28;20767;-50
2022/04/26 12:55:09;;;;;;;5.73;4.87;;;22.80;99.90;;;;;;5104387;27;20450;-51
2022/04/26 12:57:50;;;;;;;6.00;4.97;;;22.60;99.90;;;;;;5094265;28;20473;-50
2022/04/26 13:00:18;;;;;;;5.40;4.90;;;22.70;99.90;;;;;;5092171;28;20411;-51
2022/04/26 13:02:45;;;;;;;7.47;5.93;;;22.10;99.90;;;;;;5092191;28;20430;-50
2022/04/26 13:05:10;;;;;;;10.80;6.40;;;21.20;99.90;;;;;;5092403;28;20403;-50
2022/04/26 13:07:37;;;;;;;8.10;6.03;;;20.30;99.90;;;;;;5092647;28;20415;-50
2022/04/26 13:10:03;;;;;;;9.80;5.73;;;20.50;99.90;;;;;;5092235;28;20192;-50
2022/04/26 13:12:28;;;;;;;7.87;6.20;;;21.10;99.90;;;;;;5105654;28;20465;-50
2022/04/26 13:14:54;;;;;;;6.57;5.13;;;21.50;99.90;;;;;;5112748;28;20399;-51
2022/04/26 13:17:21;;;;;;;9.63;5.73;;;21.00;99.90;;;;;;5112526;28;20232;-50
2022/04/26 13:19:49;;;;;;;6.63;5.63;;;20.40;99.90;;;;;;5112258;28;20191;-50
2022/04/26 13:22:16;;;;;;;8.43;5.67;;;20.20;99.90;;;;;;5112465;28;20436;-50
2022/04/26 13:24:42;;;;;;;7.57;5.10;;;20.00;99.90;;;;;;5112863;28;20391;-51
2022/04/26 13:27:08;;;;;;;6.20;5.60;;;19.40;99.90;;;;;;5112349;28;20743;-51
2022/04/26 13:29:33;;;;;;;7.00;5.43;;;18.70;99.90;;;;;;5112443;28;20255;-51
2022/04/26 13:31:59;;;;;;;6.90;5.60;;;18.30;99.90;;;;;;5112508;28;20493;-50
2022/04/26 13:34:25;;;;;;;8.83;6.73;;;17.80;99.90;;;;;;5104512;28;20200;-50
2022/04/26 13:36:51;;;;;;;8.47;6.00;;;17.60;99.90;;;;;;5112208;28;20204;-50
2022/04/26 13:39:17;;;;;;;6.67;5.57;;;17.30;99.90;;;;;;5095592;28;20431;-50
2022/04/26 13:41:42;;;;;;;8.70;5.90;;;17.30;99.90;;;;;;5112060;28;20414;-50
2022/04/26 13:44:08;;;;;;;10.03;5.67;;;17.70;99.90;;;;;;5111930;28;20214;-50
2022/04/26 13:46:33;;;;;;;8.90;5.07;;;18.60;99.90;;;;;;5112100;28;20181;-50
2022/04/26 13:48:59;;;;;;;7.50;5.60;;;18.70;99.90;;;;;;5111773;28;20256;-50
2022/04/26 13:51:29;;;;;;;9.00;6.50;;;18.30;99.90;;;;;;5111806;28;20256;-50
2022/04/26 13:53:54;;;;;;;6.93;5.40;;;17.90;99.90;;;;;;5111901;28;20410;-50
2022/04/26 13:56:20;;;;;;;10.30;6.00;;;17.60;99.90;;;;;;5111721;28;20445;-50
2022/04/26 13:58:46;;;;;;;9.60;6.40;;;17.50;99.90;;;;;;5111781;28;20623;-50
2022/04/26 14:01:11;;;;;;;10.30;6.60;;;17.40;99.90;;;;;;5111699;28;20701;-50
2022/04/26 14:03:37;;;;;;;9.60;5.60;;;17.20;99.90;;;;;;5111728;28;20596;-50
2022/04/26 14:06:02;;;;;;;7.60;5.30;;;17.00;99.90;;;;;;5111490;28;20251;-50
2022/04/26 14:08:30;;;;;;;9.13;5.40;;;17.20;99.90;;;;;;5104375;27;20250;-50
2022/04/26 14:10:57;;;;;;;6.90;5.80;;;17.40;99.90;;;;;;5107805;27;20209;-51
2022/04/26 14:13:22;;;;;;;8.80;5.93;;;18.00;99.90;;;;;;5110802;28;20851;-51
2022/04/26 14:24:07;;;;;;;7.97;6.80;;;22.00;99.90;;;;;;5104037;28;20974;-50
2022/04/26 14:26:34;;;;;;;9.70;6.37;;;22.20;99.90;;;;;;5080530;28;20450;-50
2022/04/26 14:29:00;;;;;;;8.20;6.60;;;22.50;99.90;;;;;;5097493;28;20752;-50
2022/04/26 14:31:25;;;;;;;6.40;5.70;;;22.20;99.90;;;;;;5102670;27;20532;-50
2022/04/26 14:33:51;;;;;;;7.53;5.90;;;21.50;99.90;;;;;;5102751;28;20200;-50
2022/04/26 14:36:16;;;;;;;7.70;5.33;;;21.00;99.90;;;;;;5110620;28;20222;-50
2022/04/26 14:38:42;;;;;;;5.03;4.50;;;21.10;99.90;;;;;;5110738;28;20253;-50
2022/04/26 14:41:08;;;;;;;10.17;5.07;;;21.20;99.90;;;;;;5110852;28;20549;-51
2022/04/26 14:43:34;;;;;;;5.37;4.87;;;21.40;99.90;;;;;;5110102;28;20223;-51
2022/04/26 14:46:01;;;;;;;6.20;5.10;;;21.50;99.90;;;;;;5100746;28;20419;-51
2022/04/26 14:48:29;;;;;;;6.37;4.47;;;21.80;99.90;;;;;;5084048;28;20505;-50
2022/04/26 14:50:55;;;;;;;4.50;4.07;;;21.90;99.90;;;;;;5110571;28;20272;-50
2022/04/26 14:53:21;;;;;;;4.50;4.10;;;22.10;99.90;;;;;;5105753;28;20427;-51
2022/04/26 14:55:47;;;;;;;7.20;4.40;;;22.00;99.90;;;;;;5090147;28;20415;-50
2022/04/26 14:58:14;;;;;;;6.93;4.63;;;22.10;99.90;;;;;;5110257;28;20212;-50
2022/04/26 15:00:40;;;;;;;6.43;4.23;;;21.80;99.90;;;;;;5110592;28;20182;-50
2022/04/26 15:03:06;;;;;;;9.23;4.60;;;21.50;99.90;;;;;;5110464;28;20414;-51
2022/04/26 15:05:31;;;;;;;5.53;4.47;;;21.30;99.90;;;;;;5110740;28;20446;-50
2022/04/26 15:10:41;;;;;;;7.67;4.10;;;21.30;99.90;;;;;;5111120;28;20183;-50
2022/04/26 15:18:35;;;;;;;4.97;4.10;;;21.40;99.90;;;;;;5090050;28;20535;-50
2022/04/26 15:21:08;;;;;;;3.97;3.57;;;21.30;99.90;;;;;;5090165;28;20869;-50
2022/04/26 15:23:35;;;;;;;4.37;3.87;;;21.00;99.90;;;;;;5090038;28;20169;-50
2022/04/26 15:26:03;;;;;;;3.83;3.43;;;20.80;99.90;;;;;;5090345;28;20408;-50
2022/04/26 15:28:30;;;;;;;4.50;3.80;;;21.00;99.90;;;;;;5090088;28;20423;-51
2022/04/26 15:30:55;;;;;;;6.40;4.67;;;21.00;99.90;;;;;;5090243;28;20461;-50
2022/04/26 15:33:22;;;;;;;8.43;4.53;;;20.50;99.90;;;;;;5089904;28;20823;-51
2022/04/26 15:35:48;;;;;;;9.80;4.43;;;20.50;99.90;;;;;;5090008;28;20249;-51
2022/04/26 15:38:14;;;;;;;5.50;4.33;;;20.40;99.90;;;;;;5090449;28;20447;-50
2022/04/26 15:40:42;;;;;;;5.13;4.40;;;20.20;99.90;;;;;;5090028;28;20188;-51
2022/04/26 15:43:08;;;;;;;5.83;4.43;;;20.00;99.90;;;;;;5089892;28;20447;-50
2022/04/26 15:45:34;;;;;;;6.60;5.10;;;19.80;99.90;;;;;;5102821;28;20453;-51
2022/04/26 15:48:00;;;;;;;7.93;5.33;;;19.50;99.90;;;;;;5110177;28;20176;-51
2022/04/26 15:50:27;;;;;;;9.30;5.87;;;19.30;99.90;;;;;;5110292;28;20200;-50
2022/04/26 15:52:52;;;;;;;5.63;4.23;;;19.20;99.90;;;;;;5110283;28;20409;-50
2022/04/26 15:55:18;;;;;;;6.10;5.10;;;19.10;99.90;;;;;;5110420;28;20410;-50
2022/04/26 15:57:47;;;;;;;5.70;4.70;;;19.00;99.90;;;;;;5110032;28;20212;-50
2022/04/26 16:00:14;;;;;;;7.37;4.90;;;19.00;99.90;;;;;;5110383;28;20181;-50
2022/04/26 16:02:40;;;;;;;6.63;4.50;;;18.90;99.90;;;;;;5110324;28;20426;-51
2022/04/26 16:05:06;;;;;;;5.23;4.63;;;18.80;99.90;;;;;;5109691;28;20933;-51
2022/04/26 16:07:32;;;;;;;6.73;4.70;;;18.70;99.90;;;;;;5096918;28;20224;-50
2022/04/26 16:20:53;;;;;;;15.13;4.23;;;17.80;99.90;;;;;;5105253;28;20482;-50
2022/04/26 16:23:19;;;;;;;8.73;5.00;;;17.60;99.90;;;;;;5109607;28;20442;-50
2022/04/26 16:25:45;;;;;;;8.53;5.30;;;17.30;99.90;;;;;;5113662;28;20747;-50
2022/04/26 16:28:11;;;;;;;10.63;5.30;;;17.20;99.90;;;;;;5110496;28;20272;-50
2022/04/26 16:30:38;;;;;;;6.63;4.90;;;16.90;99.90;;;;;;5092179;28;20523;-50
2022/04/26 16:33:05;;;;;;;5.07;3.57;;;16.80;99.90;;;;;;5100256;28;20275;-50
2022/04/26 16:35:32;;;;;;;9.27;3.93;;;16.70;99.90;;;;;;5096196;28;20904;-50
2022/04/26 16:37:58;;;;;;;4.73;3.53;;;16.50;99.90;;;;;;5098472;28;20503;-50
2022/04/26 16:40:24;;;;;;;4.10;3.10;;;16.40;99.90;;;;;;5107822;28;20465;-50
2022/04/26 16:42:50;;;;;;;8.77;4.27;;;16.20;99.90;;;;;;5099407;28;20962;-50
2022/04/26 16:45:16;;;;;;;10.10;6.90;;;16.10;99.90;;;;;;5103014;28;20466;-51
2022/04/26 16:47:41;;;;;;;7.20;5.50;;;16.00;99.90;;;;;;5106487;28;20193;-50
2022/04/26 16:50:08;;;;;;;8.47;5.57;;;15.90;99.90;;;;;;5097164;28;20438;-50
2022/04/26 16:52:35;;;;;;;7.50;5.43;;;15.80;99.90;;;;;;5095614;28;20201;-50
2022/04/26 16:55:01;;;;;;;8.90;6.17;;;15.60;99.90;;;;;;5101728;28;20451;-50
2022/04/26 16:57:28;;;;;;;7.23;5.40;;;15.50;99.90;;;;;;5077934;28;20486;-51
2022/04/26 16:59:56;;;;;;;9.97;5.20;;;15.40;99.90;;;;;;5109925;28;20242;-50
2022/04/26 17:02:22;;;;;;;7.53;5.63;;;15.40;99.90;;;;;;5092472;28;20459;-50
2022/04/26 17:04:48;;;;;;;8.77;6.60;;;15.30;99.90;;;;;;5099428;28;20418;-50
2022/04/26 17:07:13;;;;;;;8.60;6.27;;;15.20;99.90;;;;;;5111408;28;20442;-50
2022/04/26 17:09:39;;;;;;;8.47;5.90;;;15.10;99.90;;;;;;5107044;28;20196;-50
2022/04/26 17:12:05;;;;;;;8.50;5.47;;;14.80;99.90;;;;;;5106995;27;20619;-50
2022/04/26 17:14:32;;;;;;;9.07;5.60;;;14.70;99.90;;;;;;5109010;27;20570;-50
2022/04/26 17:16:58;;;;;;;6.50;5.70;;;14.70;99.90;;;;;;5109851;28;20477;-50
2022/04/26 17:19:23;;;;;;;9.40;5.90;;;14.70;99.90;;;;;;5108556;28;20829;-50